createdAt,value
2019-03-29T00:01:24.334Z,102122.83
2019-03-29T00:03:55.224Z,102123.33
2019-03-29T00:06:26.076Z,102122.13
2019-03-29T00:09:00.271Z,102128.23
2019-03-29T00:11:32.336Z,102116.08
2019-03-29T00:14:03.785Z,102122.28
2019-03-29T00:16:34.218Z,102119.73
2019-03-29T00:19:07.194Z,102116.91
2019-03-29T00:21:39.191Z,102112.18
2019-03-29T00:24:14.951Z,102112.73
2019-03-29T00:26:48.719Z,102107.35
2019-03-29T00:29:20.955Z,102107.41
2019-03-29T00:31:52.685Z,102101.47
2019-03-29T00:34:24.596Z,102110.16
2019-03-29T00:36:55.022Z,102105.20
2019-03-29T00:39:27.903Z,102103.48
2019-03-29T00:41:59.952Z,102104.47
2019-03-29T00:44:30.447Z,102099.52
2019-03-29T00:47:01.235Z,102099.17
2019-03-29T00:49:34.697Z,102094.13
2019-03-29T00:52:09.225Z,102096.45
2019-03-29T00:54:43.664Z,102090.86
2019-03-29T00:57:14.312Z,102092.59
2019-03-29T00:59:44.617Z,102092.85
2019-03-29T01:02:15.756Z,102093.95
2019-03-29T01:04:46.494Z,102088.83
2019-03-29T01:07:17.182Z,102092.81
2019-03-29T01:09:51.748Z,102090.03
2019-03-29T01:12:24.016Z,102088.42
2019-03-29T01:14:57.202Z,102089.30
2019-03-29T01:17:28.454Z,102087.49
2019-03-29T01:20:00.000Z,102090.92
2019-03-29T01:22:32.566Z,102092.85
2019-03-29T01:25:03.618Z,102090.92
2019-03-29T01:27:34.659Z,102092.67
2019-03-29T01:30:07.624Z,102088.02
2019-03-29T01:32:38.092Z,102092.45
2019-03-29T01:35:09.560Z,102097.45
2019-03-29T01:37:40.948Z,102085.43
2019-03-29T01:40:12.209Z,102092.83
2019-03-29T01:42:42.530Z,102084.30
2019-03-29T01:45:14.244Z,102091.06
2019-03-29T01:47:47.254Z,102085.22
2019-03-29T01:50:18.107Z,102082.59
2019-03-29T01:52:49.247Z,102075.84
2019-03-29T01:55:23.308Z,102072.80
2019-03-29T01:57:54.319Z,102069.07
2019-03-29T02:00:32.118Z,102071.19
2019-03-29T02:03:03.196Z,102069.15
2019-03-29T02:05:36.019Z,102068.13
2019-03-29T02:08:06.649Z,102068.87
2019-03-29T02:10:38.506Z,102065.05
2019-03-29T02:13:08.930Z,102057.94
2019-03-29T02:15:41.525Z,102058.27
2019-03-29T02:18:15.285Z,102052.56
2019-03-29T02:20:45.816Z,102059.42
2019-03-29T02:23:17.290Z,102055.32
2019-03-29T02:25:48.743Z,102057.77
2019-03-29T02:28:19.785Z,102065.99
2019-03-29T02:30:52.357Z,102058.15
2019-03-29T02:33:24.858Z,102051.09
2019-03-29T02:35:57.686Z,102045.62
2019-03-29T02:38:28.135Z,102042.07
2019-03-29T02:40:58.773Z,102041.20
2019-03-29T02:43:30.420Z,102043.70
2019-03-29T02:46:01.254Z,102050.56
2019-03-29T02:48:32.191Z,102044.69
2019-03-29T02:51:04.528Z,102046.69
2019-03-29T02:53:37.445Z,102039.10
2019-03-29T02:56:08.822Z,102039.73
2019-03-29T02:58:40.346Z,102038.94
2019-03-29T03:01:11.898Z,102045.67
2019-03-29T03:03:42.429Z,102042.87
2019-03-29T03:06:16.932Z,102040.14
2019-03-29T03:08:48.021Z,102039.18
2019-03-29T03:11:20.590Z,102036.38
2019-03-29T03:13:51.601Z,102033.41
2019-03-29T03:16:22.235Z,102037.88
2019-03-29T03:18:53.387Z,102038.98
2019-03-29T03:21:24.219Z,102045.38
2019-03-29T03:23:54.958Z,102036.39
2019-03-29T03:26:25.986Z,102046.05
2019-03-29T03:28:57.841Z,102046.43
2019-03-29T03:31:29.763Z,102040.87
2019-03-29T03:34:00.144Z,102043.95
2019-03-29T03:36:30.825Z,102050.19
2019-03-29T03:39:01.587Z,102054.48
2019-03-29T03:41:33.137Z,102049.14
2019-03-29T03:44:03.772Z,102056.55
2019-03-29T03:46:35.821Z,102057.16
2019-03-29T03:49:07.175Z,102055.78
2019-03-29T03:51:38.638Z,102053.66
2019-03-29T03:54:09.686Z,102059.24
2019-03-29T03:56:40.706Z,102051.23
2019-03-29T03:59:12.673Z,102055.99
2019-03-29T04:01:46.163Z,102057.52
2019-03-29T04:04:16.493Z,102055.16
2019-03-29T04:06:50.498Z,102052.25
2019-03-29T04:09:20.814Z,102056.41
2019-03-29T04:11:52.072Z,102053.07
2019-03-29T04:14:23.404Z,102057.23
2019-03-29T04:16:54.249Z,102053.31
2019-03-29T04:19:26.413Z,102045.87
2019-03-29T04:21:58.583Z,102051.80
2019-03-29T04:24:30.386Z,102051.56
2019-03-29T04:27:02.308Z,102046.00
2019-03-29T04:29:33.855Z,102042.27
2019-03-29T04:32:09.181Z,102048.61
2019-03-29T04:34:40.460Z,102048.27
2019-03-29T04:37:13.347Z,102048.52
2019-03-29T04:39:44.457Z,102044.81
2019-03-29T04:42:15.598Z,102034.88
2019-03-29T04:44:47.396Z,102037.74
2019-03-29T04:47:19.242Z,102032.52
2019-03-29T04:49:51.185Z,102027.41
2019-03-29T04:52:23.237Z,102032.03
2019-03-29T04:54:55.597Z,102027.28
2019-03-29T04:57:26.237Z,102029.66
2019-03-29T04:59:59.428Z,102023.20
2019-03-29T05:02:30.453Z,102018.34
2019-03-29T05:05:04.823Z,102020.31
2019-03-29T05:07:37.172Z,102017.33
2019-03-29T05:10:20.269Z,102016.08
2019-03-29T05:12:42.622Z,102014.83
2019-03-29T05:15:15.092Z,102018.45
2019-03-29T05:17:48.556Z,102016.43
2019-03-29T05:20:19.496Z,102019.39
2019-03-29T05:22:50.266Z,102022.25
2019-03-29T05:25:23.037Z,102023.73
2019-03-29T05:27:54.830Z,102016.87
2019-03-29T05:30:25.128Z,102022.83
2019-03-29T05:32:57.485Z,102013.97
2019-03-29T05:35:28.195Z,102017.05
2019-03-29T05:38:00.045Z,102014.48
2019-03-29T05:40:35.134Z,102019.53
2019-03-29T05:43:08.313Z,102019.84
2019-03-29T05:45:38.748Z,102021.21
2019-03-29T05:48:12.634Z,102025.14
2019-03-29T05:50:44.169Z,102031.31
2019-03-29T05:53:16.334Z,102026.68
2019-03-29T05:55:48.475Z,102026.14
2019-03-29T05:58:18.949Z,102030.91
2019-03-29T06:00:50.495Z,102032.64
2019-03-29T06:03:22.088Z,102033.00
2019-03-29T06:05:52.878Z,102037.17
2019-03-29T06:08:25.875Z,102044.31
2019-03-29T06:11:00.099Z,102040.28
2019-03-29T06:13:31.742Z,102043.81
2019-03-29T06:16:06.049Z,102049.08
2019-03-29T06:18:35.253Z,102045.13
2019-03-29T06:21:07.619Z,102044.72
2019-03-29T06:23:38.094Z,102044.79
2019-03-29T06:26:09.464Z,102044.77
2019-03-29T06:28:40.634Z,102047.03
2019-03-29T06:31:12.900Z,102044.80
2019-03-29T06:33:44.860Z,102049.61
2019-03-29T06:36:16.999Z,102048.28
2019-03-29T06:38:48.994Z,102048.34
2019-03-29T06:41:20.548Z,102042.84
2019-03-29T06:43:51.789Z,102045.54
2019-03-29T06:46:23.236Z,102049.87
2019-03-29T06:48:55.401Z,102043.37
2019-03-29T06:51:27.650Z,102043.80
2019-03-29T06:53:58.655Z,102036.57
2019-03-29T06:56:29.948Z,102045.05
2019-03-29T06:59:01.213Z,102041.13
2019-03-29T07:01:33.263Z,102043.28
2019-03-29T07:04:03.587Z,102035.20
2019-03-29T07:06:34.317Z,102036.64
2019-03-29T07:09:06.791Z,102037.69
2019-03-29T07:11:41.309Z,102037.83
2019-03-29T07:14:11.946Z,102033.20
2019-03-29T07:16:44.112Z,102030.45
2019-03-29T07:19:16.073Z,102034.95
2019-03-29T07:21:48.135Z,102039.68
2019-03-29T07:24:21.679Z,102033.61
2019-03-29T07:26:52.977Z,102026.64
2019-03-29T07:29:25.246Z,102026.80
2019-03-29T07:31:55.975Z,102023.45
2019-03-29T07:34:27.414Z,102016.29
2019-03-29T07:36:57.764Z,102017.30
2019-03-29T07:39:28.480Z,102014.48
2019-03-29T07:41:59.526Z,101997.45
2019-03-29T07:44:30.048Z,102003.05
2019-03-29T07:47:00.885Z,101997.88
2019-03-29T07:49:31.616Z,101988.18
2019-03-29T07:52:03.785Z,101989.72
2019-03-29T07:54:34.514Z,101999.25
2019-03-29T07:57:06.271Z,101997.06
2019-03-29T07:59:37.117Z,101993.44
2019-03-29T08:02:08.866Z,101999.37
2019-03-29T08:04:42.145Z,101998.48
2019-03-29T08:07:26.727Z,101995.84
2019-03-29T08:09:48.231Z,101989.52
2019-03-29T08:12:18.800Z,101992.33
2019-03-29T08:14:52.179Z,101992.77
2019-03-29T08:17:24.847Z,101986.63
2019-03-29T08:20:24.558Z,101986.55
2019-03-29T08:22:28.836Z,101978.77
2019-03-29T08:24:59.524Z,101971.50
2019-03-29T08:27:31.734Z,101966.50
2019-03-29T08:30:02.078Z,101958.48
2019-03-29T08:32:32.809Z,101962.19
2019-03-29T08:35:03.883Z,101965.37
2019-03-29T08:37:34.686Z,101950.45
2019-03-29T08:40:06.648Z,101953.39
2019-03-29T08:42:37.381Z,101956.17
2019-03-29T08:45:08.954Z,101956.71
2019-03-29T08:47:39.255Z,101949.59
2019-03-29T08:50:09.898Z,101940.27
2019-03-29T08:52:42.260Z,101943.28
2019-03-29T08:55:13.370Z,101937.83
2019-03-29T08:57:44.397Z,101941.96
2019-03-29T09:00:19.751Z,101936.64
2019-03-29T09:02:52.351Z,101946.06
2019-03-29T09:05:23.100Z,101920.66
2019-03-29T09:07:53.612Z,101916.34
2019-03-29T09:10:26.795Z,101917.91
2019-03-29T09:12:57.028Z,101902.66
2019-03-29T09:15:28.248Z,101902.63
2019-03-29T09:18:00.087Z,101893.15
2019-03-29T09:20:34.651Z,101894.19
2019-03-29T09:23:10.249Z,101884.64
2019-03-29T09:25:40.595Z,101879.86
2019-03-29T09:28:12.381Z,101869.95
2019-03-29T09:30:43.210Z,101867.18
2019-03-29T09:33:13.839Z,101870.27
2019-03-29T09:35:49.502Z,101861.34
2019-03-29T09:38:21.040Z,101862.44
2019-03-29T09:40:58.789Z,101853.67
2019-03-29T09:43:26.553Z,101857.69
2019-03-29T09:45:56.722Z,101863.66
2019-03-29T09:48:27.662Z,101859.72
2019-03-29T09:50:59.143Z,101868.41
2019-03-29T09:53:30.040Z,101858.81
2019-03-29T09:56:01.069Z,101849.14
2019-03-29T09:58:32.227Z,101840.37
2019-03-29T10:01:04.183Z,101841.62
2019-03-29T10:03:36.062Z,101836.24
2019-03-29T10:06:08.534Z,101834.66
2019-03-29T10:08:42.397Z,101848.42
2019-03-29T10:11:14.177Z,101832.77
2019-03-29T10:13:47.677Z,101831.14
2019-03-29T10:16:19.024Z,101825.76
2019-03-29T10:18:50.104Z,101819.03
2019-03-29T10:21:23.176Z,101828.45
2019-03-29T10:23:57.574Z,101825.30
2019-03-29T10:26:28.010Z,101818.91
2019-03-29T10:28:58.837Z,101819.72
2019-03-29T10:31:32.837Z,101831.58
2019-03-29T10:34:03.581Z,101811.08
2019-03-29T10:36:34.306Z,101819.16
2019-03-29T10:39:11.844Z,101813.01
2019-03-29T10:41:42.228Z,101802.23
2019-03-29T10:44:12.858Z,101791.78
2019-03-29T10:46:43.983Z,101793.27
2019-03-29T10:49:14.930Z,101794.27
2019-03-29T10:51:45.673Z,101779.83
2019-03-29T10:54:17.518Z,101787.44
2019-03-29T10:56:48.268Z,101778.50
2019-03-29T10:59:27.307Z,101785.63
2019-03-29T11:01:53.409Z,101785.33
2019-03-29T11:04:23.919Z,101779.91
2019-03-29T11:06:54.671Z,101768.55
2019-03-29T11:09:25.625Z,101780.38
2019-03-29T11:11:56.083Z,101770.02
2019-03-29T11:14:27.183Z,101762.16
2019-03-29T11:16:58.153Z,101766.03
2019-03-29T11:19:30.480Z,101748.14
2019-03-29T11:22:01.618Z,101754.52
2019-03-29T11:24:42.902Z,101750.53
2019-03-29T11:30:48.690Z,101735.33
2019-03-29T11:33:18.975Z,101764.16
2019-03-29T11:35:51.703Z,101733.39
2019-03-29T11:38:23.988Z,101742.11
2019-03-29T11:40:56.048Z,101731.99
2019-03-29T11:43:27.535Z,101731.53
2019-03-29T11:45:59.175Z,101718.91
2019-03-29T11:48:29.971Z,101731.59
2019-03-29T11:51:01.706Z,101715.06
2019-03-29T11:53:32.348Z,101707.70
2019-03-29T11:56:02.858Z,101718.99
2019-03-29T11:58:36.899Z,101707.87
2019-03-29T12:01:11.137Z,101709.86
2019-03-29T12:03:40.911Z,101709.38
2019-03-29T12:06:11.333Z,101702.28
2019-03-29T12:08:41.953Z,101706.94
2019-03-29T12:11:13.155Z,101694.87
2019-03-29T12:13:45.973Z,101681.45
2019-03-29T12:16:16.302Z,101676.53
2019-03-29T12:18:48.573Z,101658.20
2019-03-29T12:21:26.532Z,101684.20
2019-03-29T12:23:57.634Z,101670.38
2019-03-29T12:26:31.211Z,101665.44
2019-03-29T12:29:02.992Z,101658.36
2019-03-29T12:31:33.701Z,101660.87
2019-03-29T12:34:08.060Z,101654.59
2019-03-29T12:36:42.603Z,101659.96
2019-03-29T12:39:14.197Z,101646.76
2019-03-29T12:41:44.534Z,101650.18
2019-03-29T12:44:15.936Z,101646.13
2019-03-29T12:46:49.566Z,101634.78
2019-03-29T12:49:20.197Z,101636.86
2019-03-29T12:51:50.825Z,101622.05
2019-03-29T12:54:21.624Z,101622.04
2019-03-29T12:56:53.944Z,101623.23
2019-03-29T12:59:26.508Z,101613.18
2019-03-29T13:01:57.240Z,101615.73
2019-03-29T13:04:27.969Z,101604.73
2019-03-29T13:06:59.622Z,101600.83
2019-03-29T13:09:29.857Z,101593.75
2019-03-29T13:12:00.582Z,101599.06
2019-03-29T13:14:32.640Z,101575.95
2019-03-29T13:17:03.186Z,101564.86
2019-03-29T13:19:34.004Z,101571.30
2019-03-29T13:22:06.787Z,101566.98
2019-03-29T13:24:37.418Z,101569.14
2019-03-29T13:27:08.150Z,101552.00
2019-03-29T13:29:38.777Z,101548.52
2019-03-29T13:32:09.410Z,101547.03
2019-03-29T13:34:41.166Z,101525.58
2019-03-29T13:37:12.202Z,101525.59
2019-03-29T13:39:42.628Z,101538.70
2019-03-29T13:42:13.265Z,101536.27
2019-03-29T13:44:46.753Z,101525.53
2019-03-29T13:47:18.268Z,101535.77
2019-03-29T13:49:48.843Z,101527.77
2019-03-29T13:52:22.653Z,101535.53
2019-03-29T13:54:54.398Z,101528.02
2019-03-29T13:57:26.755Z,101515.05
2019-03-29T13:59:57.364Z,101519.55
2019-03-29T14:02:28.229Z,101515.97
2019-03-29T14:05:00.812Z,101519.28
2019-03-29T14:07:31.236Z,101511.94
2019-03-29T14:10:02.582Z,101515.83
2019-03-29T14:12:34.650Z,101519.20
2019-03-29T14:15:09.338Z,101513.32
2019-03-29T14:17:39.898Z,101525.98
2019-03-29T14:20:11.965Z,101522.95
2019-03-29T14:22:42.593Z,101515.92
2019-03-29T14:25:14.041Z,101519.20
2019-03-29T14:27:45.377Z,101517.64
2019-03-29T14:30:16.633Z,101515.85
2019-03-29T14:32:46.958Z,101510.31
2019-03-29T14:35:17.792Z,101502.30
2019-03-29T14:37:48.525Z,101504.95
2019-03-29T14:40:19.951Z,101492.88
2019-03-29T14:42:50.522Z,101510.53
2019-03-29T14:45:21.341Z,101507.80
2019-03-29T14:47:52.684Z,101527.06
2019-03-29T14:50:23.730Z,101511.28
2019-03-29T14:52:54.565Z,101520.20
2019-03-29T14:55:27.730Z,101521.27
2019-03-29T14:57:58.377Z,101526.20
2019-03-29T15:00:39.545Z,101523.72
2019-03-29T15:03:11.618Z,101520.45
2019-03-29T15:05:41.944Z,101536.80
2019-03-29T15:08:12.981Z,101529.84
2019-03-29T15:10:46.000Z,101534.10
2019-03-29T15:13:16.404Z,101518.98
2019-03-29T15:15:47.233Z,101515.58
2019-03-29T15:18:17.869Z,101511.87
2019-03-29T15:20:53.733Z,101523.80
2019-03-29T15:23:20.867Z,101517.81
2019-03-29T15:25:51.569Z,101519.56
2019-03-29T15:28:22.530Z,101514.50
2019-03-29T15:30:54.804Z,101512.38
2019-03-29T15:33:25.533Z,101519.17
2019-03-29T15:35:58.926Z,101522.42
2019-03-29T15:38:30.965Z,101515.94
2019-03-29T15:41:01.529Z,101510.87
2019-03-29T15:43:32.354Z,101513.83
2019-03-29T15:46:02.983Z,101500.83
2019-03-29T15:48:33.619Z,101491.91
2019-03-29T15:51:05.525Z,101497.34
2019-03-29T15:53:40.046Z,101492.64
2019-03-29T15:56:14.316Z,101502.36
2019-03-29T15:58:46.221Z,101494.09
2019-03-29T16:01:18.796Z,101485.42
2019-03-29T16:03:50.029Z,101497.00
2019-03-29T16:06:22.472Z,101484.40
2019-03-29T16:08:53.099Z,101487.52
2019-03-29T16:11:25.471Z,101480.97
2019-03-29T16:13:58.045Z,101502.05
2019-03-29T16:16:28.518Z,101493.75
2019-03-29T16:19:00.224Z,101490.30
2019-03-29T16:21:30.620Z,101480.60
2019-03-29T16:24:01.285Z,101486.84
2019-03-29T16:26:32.812Z,101480.26
2019-03-29T16:29:04.190Z,101482.88
2019-03-29T16:31:36.342Z,101469.23
2019-03-29T16:34:10.069Z,101475.61
2019-03-29T16:36:41.692Z,101478.89
2019-03-29T16:39:12.739Z,101482.32
2019-03-29T16:41:43.982Z,101477.33
2019-03-29T16:44:14.409Z,101481.80
2019-03-29T16:46:45.467Z,101483.02
2019-03-29T16:49:17.718Z,101493.38
2019-03-29T16:51:48.962Z,101490.61
2019-03-29T16:54:21.910Z,101506.66
2019-03-29T16:56:53.077Z,101504.09
2019-03-29T16:59:24.024Z,101510.66
2019-03-29T17:01:54.865Z,101512.38
2019-03-29T17:04:26.633Z,101508.59
2019-03-29T17:07:00.715Z,101504.44
2019-03-29T17:09:33.409Z,101504.44
2019-03-29T17:12:04.549Z,101505.48
2019-03-29T17:14:36.802Z,101507.52
2019-03-29T17:17:08.476Z,101506.14
2019-03-29T17:19:39.310Z,101519.62
2019-03-29T17:22:11.479Z,101519.29
2019-03-29T17:24:56.069Z,101520.64
2019-03-29T17:27:14.785Z,101521.68
2019-03-29T17:29:45.423Z,101523.06
2019-03-29T17:32:17.066Z,101509.57
2019-03-29T17:34:49.594Z,101521.30
2019-03-29T17:37:19.903Z,101525.83
2019-03-29T17:39:50.904Z,101516.30
2019-03-29T17:42:24.488Z,101512.68
2019-03-29T17:44:58.866Z,101518.89
2019-03-29T17:47:27.609Z,101511.47
2019-03-29T17:49:59.141Z,101511.81
2019-03-29T17:52:32.551Z,101514.06
2019-03-29T17:55:03.493Z,101511.61
2019-03-29T17:57:33.815Z,101502.64
2019-03-29T18:00:07.314Z,101501.61
2019-03-29T18:02:38.294Z,101496.08
2019-03-29T18:05:09.188Z,101494.36
2019-03-29T18:07:40.121Z,101504.74
2019-03-29T18:10:11.789Z,101502.67
2019-03-29T18:12:45.899Z,101507.64
2019-03-29T18:15:16.928Z,101507.50
2019-03-29T18:17:47.731Z,101511.27
2019-03-29T18:20:18.498Z,101515.06
2019-03-29T18:22:49.233Z,101507.64
2019-03-29T18:25:23.755Z,101500.23
2019-03-29T18:27:55.954Z,101504.36
2019-03-29T18:30:40.263Z,101505.23
2019-03-29T18:33:10.615Z,101496.78
2019-03-29T18:35:42.346Z,101490.91
2019-03-29T18:38:12.774Z,101495.22
2019-03-29T18:40:44.616Z,101494.36
2019-03-29T18:43:15.265Z,101499.70
2019-03-29T18:45:46.096Z,101492.47
2019-03-29T18:48:16.933Z,101491.09
2019-03-29T18:50:48.993Z,101497.13
2019-03-29T18:53:21.261Z,101492.29
2019-03-29T18:55:53.774Z,101491.77
2019-03-29T18:58:27.426Z,101489.53
2019-03-29T19:01:01.186Z,101497.13
2019-03-29T19:03:32.889Z,101490.56
2019-03-29T19:06:03.193Z,101486.11
2019-03-29T19:08:34.708Z,101478.52
2019-03-29T19:11:05.502Z,101476.80
2019-03-29T19:13:37.668Z,101477.83
2019-03-29T19:16:08.299Z,101480.59
2019-03-29T19:18:41.705Z,101481.97
2019-03-29T19:21:12.804Z,101483.66
2019-03-29T19:23:45.072Z,101468.14
2019-03-29T19:26:16.043Z,101475.56
2019-03-29T19:28:49.127Z,101480.73
2019-03-29T19:31:21.752Z,101476.77
2019-03-29T19:33:54.181Z,101472.25
2019-03-29T19:36:25.526Z,101476.59
2019-03-29T19:38:55.946Z,101477.11
2019-03-29T19:41:26.882Z,101475.55
2019-03-29T19:43:59.770Z,101447.55
2019-03-29T19:46:33.163Z,101477.63
2019-03-29T19:49:05.230Z,101472.97
2019-03-29T19:51:36.577Z,101470.03
2019-03-29T19:54:08.355Z,101471.08
2019-03-29T19:56:39.370Z,101465.73
2019-03-29T19:59:10.041Z,101464.34
2019-03-29T20:01:42.088Z,101461.04
2019-03-29T20:04:12.498Z,101465.35
2019-03-29T20:06:44.050Z,101462.94
2019-03-29T20:09:15.618Z,101453.28
2019-03-29T20:11:46.327Z,101455.55
2019-03-29T20:14:17.677Z,101446.75
2019-03-29T20:16:48.304Z,101451.73
2019-03-29T20:19:23.032Z,101455.00
2019-03-29T20:21:53.864Z,101449.83
2019-03-29T20:24:24.222Z,101445.00
2019-03-29T20:26:54.918Z,101451.58
2019-03-29T20:29:28.006Z,101433.98
2019-03-29T20:31:58.840Z,101433.98
2019-03-29T20:34:29.938Z,101434.33
2019-03-29T20:37:00.818Z,101430.53
2019-03-29T20:39:31.445Z,101437.09
2019-03-29T20:42:02.690Z,101424.98
2019-03-29T20:44:33.219Z,101427.06
2019-03-29T20:47:04.478Z,101417.58
2019-03-29T20:49:36.527Z,101412.55
2019-03-29T20:52:07.465Z,101417.23
2019-03-29T20:54:38.632Z,101418.24
2019-03-29T20:57:09.238Z,101414.27
2019-03-29T20:59:40.582Z,101407.34
2019-03-29T21:02:10.892Z,101409.07
2019-03-29T21:04:42.770Z,101407.66
2019-03-29T21:07:14.523Z,101402.96
2019-03-29T21:09:46.077Z,101411.41
2019-03-29T21:12:17.319Z,101414.80
2019-03-29T21:14:49.181Z,101414.75
2019-03-29T21:17:21.043Z,101410.41
2019-03-29T21:19:51.461Z,101414.66
2019-03-29T21:22:22.005Z,101421.51
2019-03-29T21:24:52.715Z,101424.75
2019-03-29T21:27:25.195Z,101422.84
2019-03-29T21:29:55.928Z,101424.50
2019-03-29T21:32:27.617Z,101426.05
2019-03-29T21:34:58.518Z,101436.50
2019-03-29T21:37:30.481Z,101427.50
2019-03-29T21:40:05.799Z,101429.56
2019-03-29T21:42:36.719Z,101429.03
2019-03-29T21:45:07.594Z,101431.45
2019-03-29T21:47:39.040Z,101430.23
2019-03-29T21:50:10.490Z,101429.91
2019-03-29T21:52:42.766Z,101427.16
2019-03-29T21:55:13.194Z,101428.00
2019-03-29T21:57:43.813Z,101429.78
2019-03-29T22:00:16.194Z,101420.94
2019-03-29T22:02:47.415Z,101419.55
2019-03-29T22:05:19.596Z,101424.72
2019-03-29T22:07:51.791Z,101429.01
2019-03-29T22:10:22.591Z,101416.89
2019-03-29T22:12:53.429Z,101417.30
2019-03-29T22:15:24.364Z,101418.97
2019-03-29T22:17:55.513Z,101415.92
2019-03-29T22:20:26.237Z,101408.80
2019-03-29T22:22:58.067Z,101411.20
2019-03-29T22:25:30.572Z,101410.84
2019-03-29T22:28:01.306Z,101406.70
2019-03-29T22:30:31.940Z,101411.97
2019-03-29T22:33:04.097Z,101408.38
2019-03-29T22:35:35.686Z,101415.66
2019-03-29T22:38:07.924Z,101409.31
2019-03-29T22:40:41.662Z,101413.11
2019-03-29T22:43:13.276Z,101410.16
2019-03-29T22:45:44.612Z,101412.67
2019-03-29T22:48:16.278Z,101413.86
2019-03-29T22:50:47.265Z,101410.41
2019-03-29T22:53:18.150Z,101403.45
2019-03-29T22:55:48.890Z,101396.03
2019-03-29T22:58:19.512Z,101404.88
2019-03-29T23:00:52.954Z,101403.05
2019-03-29T23:03:24.977Z,101395.15
2019-03-29T23:05:55.281Z,101403.61
2019-03-29T23:08:28.183Z,101403.13
2019-03-29T23:10:59.303Z,101396.65
2019-03-29T23:13:32.313Z,101398.56
2019-03-29T23:16:03.739Z,101391.23
2019-03-29T23:18:34.386Z,101385.56
2019-03-29T23:21:06.593Z,101381.62
2019-03-29T23:23:39.204Z,101380.14
2019-03-29T23:26:10.169Z,101374.83
2019-03-29T23:28:40.761Z,101374.13
2019-03-29T23:31:12.353Z,101368.27
2019-03-29T23:33:43.493Z,101371.19
2019-03-29T23:36:14.800Z,101365.45
2019-03-29T23:38:45.775Z,101370.23
2019-03-29T23:41:16.404Z,101370.23
2019-03-29T23:43:48.981Z,101370.25
2019-03-29T23:46:19.818Z,101370.23
2019-03-29T23:48:50.918Z,101368.86
2019-03-29T23:51:23.739Z,101357.28
2019-03-29T23:53:54.375Z,101356.64
2019-03-29T23:56:25.216Z,101358.98
2019-03-29T23:58:56.826Z,101350.53
